< < Back
Terminal Aerodrome Forecast


Current Version              Previous Versions:   1  2  3  4  5  6  7  8  9  

Terminal Aerodrome Forecast

904
FTUS42 KFFC 010500 RRA
TAFAHN
TAF
KAHN 010542Z 0106/0206 00000KT P6SM SCT150
      TEMPO 0109/0113 4SM BR
     FM011400 VRB03KT P6SM SCT030 SCT250
     FM011800 24004KT P6SM SCT050 SCT150
     FM020100 00000KT P6SM FEW060 SCT150=



Latest METAR

237
SAUS70 KWBC 011400 RRF
MTRAHN
METAR KAHN 011351Z 00000KT 10SM CLR 28/22 A3015 RMK AO2 SLP200
T02780217


USA.gov is the U.S. government's official web portal to all federal, state and local government web resources and services.